sensor_id;sensor_type;location;lat;lon;timestamp;P1;durP1;ratioP1;P2;durP2;ratioP2
9675;SDS011;4876;42.656;23.292;2024-01-11T00:00:25;18.65;;;7.32;;
9675;SDS011;4876;42.656;23.292;2024-01-11T00:02:50;21.27;;;8.85;;
9675;SDS011;4876;42.656;23.292;2024-01-11T00:05:16;18.05;;;9.13;;
9675;SDS011;4876;42.656;23.292;2024-01-11T00:07:41;19.73;;;6.68;;
9675;SDS011;4876;42.656;23.292;2024-01-11T00:10:07;19.77;;;7.85;;
9675;SDS011;4876;42.656;23.292;2024-01-11T00:12:33;18.60;;;8.60;;
9675;SDS011;4876;42.656;23.292;2024-01-11T00:14:59;18.98;;;8.35;;
9675;SDS011;4876;42.656;23.292;2024-01-11T00:17:24;23.23;;;8.05;;
9675;SDS011;4876;42.656;23.292;2024-01-11T00:19:50;19.25;;;8.07;;
9675;SDS011;4876;42.656;23.292;2024-01-11T00:22:16;20.40;;;10.00;;
9675;SDS011;4876;42.656;23.292;2024-01-11T00:24:41;17.67;;;8.35;;
9675;SDS011;4876;42.656;23.292;2024-01-11T00:27:07;20.55;;;9.18;;
9675;SDS011;4876;42.656;23.292;2024-01-11T00:29:33;31.23;;;10.68;;
9675;SDS011;4876;42.656;23.292;2024-01-11T00:32:00;28.00;;;11.60;;
9675;SDS011;4876;42.656;23.292;2024-01-11T00:34:26;24.10;;;10.80;;
9675;SDS011;4876;42.656;23.292;2024-01-11T00:36:51;30.10;;;11.32;;
9675;SDS011;4876;42.656;23.292;2024-01-11T00:39:17;25.25;;;9.82;;
9675;SDS011;4876;42.656;23.292;2024-01-11T00:41:42;28.88;;;10.65;;
9675;SDS011;4876;42.656;23.292;2024-01-11T00:44:08;25.08;;;11.00;;
9675;SDS011;4876;42.656;23.292;2024-01-11T00:46:34;27.00;;;10.13;;
9675;SDS011;4876;42.656;23.292;2024-01-11T00:49:00;26.33;;;10.55;;
9675;SDS011;4876;42.656;23.292;2024-01-11T00:51:26;19.75;;;7.25;;
9675;SDS011;4876;42.656;23.292;2024-01-11T00:53:51;17.25;;;7.38;;
9675;SDS011;4876;42.656;23.292;2024-01-11T00:56:17;19.92;;;8.65;;
9675;SDS011;4876;42.656;23.292;2024-01-11T00:58:43;22.13;;;9.13;;
9675;SDS011;4876;42.656;23.292;2024-01-11T01:01:09;18.92;;;9.35;;
9675;SDS011;4876;42.656;23.292;2024-01-11T01:03:35;20.48;;;9.30;;
9675;SDS011;4876;42.656;23.292;2024-01-11T01:06:01;20.80;;;10.15;;
9675;SDS011;4876;42.656;23.292;2024-01-11T01:08:27;24.67;;;10.48;;
9675;SDS011;4876;42.656;23.292;2024-01-11T01:10:53;25.33;;;11.23;;
9675;SDS011;4876;42.656;23.292;2024-01-11T01:13:19;21.98;;;9.90;;
9675;SDS011;4876;42.656;23.292;2024-01-11T01:15:44;31.35;;;11.63;;
9675;SDS011;4876;42.656;23.292;2024-01-11T01:18:10;22.38;;;10.50;;
9675;SDS011;4876;42.656;23.292;2024-01-11T01:20:35;20.45;;;8.88;;
9675;SDS011;4876;42.656;23.292;2024-01-11T01:23:01;21.60;;;9.63;;
9675;SDS011;4876;42.656;23.292;2024-01-11T01:25:27;23.77;;;10.45;;
9675;SDS011;4876;42.656;23.292;2024-01-11T01:27:52;18.80;;;8.80;;
9675;SDS011;4876;42.656;23.292;2024-01-11T01:30:18;21.55;;;9.20;;
9675;SDS011;4876;42.656;23.292;2024-01-11T01:32:43;24.55;;;9.80;;
9675;SDS011;4876;42.656;23.292;2024-01-11T01:35:09;19.75;;;9.40;;
9675;SDS011;4876;42.656;23.292;2024-01-11T01:37:34;22.25;;;10.38;;
9675;SDS011;4876;42.656;23.292;2024-01-11T01:40:00;16.20;;;6.93;;
9675;SDS011;4876;42.656;23.292;2024-01-11T01:42:26;18.80;;;8.63;;
9675;SDS011;4876;42.656;23.292;2024-01-11T01:44:51;19.48;;;7.57;;
9675;SDS011;4876;42.656;23.292;2024-01-11T01:47:17;20.75;;;8.15;;
9675;SDS011;4876;42.656;23.292;2024-01-11T01:49:43;17.17;;;7.72;;
9675;SDS011;4876;42.656;23.292;2024-01-11T01:52:09;19.92;;;7.15;;
9675;SDS011;4876;42.656;23.292;2024-01-11T01:54:39;15.18;;;7.43;;
9675;SDS011;4876;42.656;23.292;2024-01-11T01:57:05;19.00;;;7.22;;
9675;SDS011;4876;42.656;23.292;2024-01-11T01:59:32;20.75;;;7.97;;
9675;SDS011;4876;42.656;23.292;2024-01-11T02:01:58;16.92;;;6.97;;
9675;SDS011;4876;42.656;23.292;2024-01-11T02:04:24;14.38;;;6.65;;
9675;SDS011;4876;42.656;23.292;2024-01-11T02:06:50;15.43;;;5.68;;
9675;SDS011;4876;42.656;23.292;2024-01-11T02:09:18;16.70;;;8.65;;
9675;SDS011;4876;42.656;23.292;2024-01-11T02:11:44;17.20;;;7.40;;
9675;SDS011;4876;42.656;23.292;2024-01-11T02:14:10;15.10;;;7.38;;
9675;SDS011;4876;42.656;23.292;2024-01-11T02:16:36;19.15;;;6.97;;
9675;SDS011;4876;42.656;23.292;2024-01-11T02:19:02;12.82;;;6.07;;
9675;SDS011;4876;42.656;23.292;2024-01-11T02:21:29;13.43;;;6.15;;
9675;SDS011;4876;42.656;23.292;2024-01-11T02:24:06;17.40;;;7.10;;
9675;SDS011;4876;42.656;23.292;2024-01-11T02:26:32;16.88;;;7.63;;
9675;SDS011;4876;42.656;23.292;2024-01-11T02:28:58;19.58;;;8.82;;
9675;SDS011;4876;42.656;23.292;2024-01-11T02:31:24;22.33;;;8.00;;
9675;SDS011;4876;42.656;23.292;2024-01-11T02:33:51;16.27;;;7.30;;
9675;SDS011;4876;42.656;23.292;2024-01-11T02:36:17;23.30;;;9.07;;
9675;SDS011;4876;42.656;23.292;2024-01-11T02:38:43;22.67;;;8.82;;
9675;SDS011;4876;42.656;23.292;2024-01-11T02:41:09;21.00;;;8.35;;
9675;SDS011;4876;42.656;23.292;2024-01-11T02:43:36;23.35;;;8.00;;
9675;SDS011;4876;42.656;23.292;2024-01-11T02:46:02;21.05;;;8.75;;
9675;SDS011;4876;42.656;23.292;2024-01-11T02:48:28;22.90;;;10.18;;
9675;SDS011;4876;42.656;23.292;2024-01-11T02:50:55;25.15;;;9.25;;
9675;SDS011;4876;42.656;23.292;2024-01-11T02:53:21;23.13;;;9.93;;
9675;SDS011;4876;42.656;23.292;2024-01-11T02:55:47;21.33;;;9.40;;
9675;SDS011;4876;42.656;23.292;2024-01-11T02:58:12;24.08;;;9.50;;
9675;SDS011;4876;42.656;23.292;2024-01-11T03:00:38;25.77;;;8.88;;
9675;SDS011;4876;42.656;23.292;2024-01-11T03:03:03;22.77;;;10.15;;
9675;SDS011;4876;42.656;23.292;2024-01-11T03:05:29;18.88;;;8.90;;
9675;SDS011;4876;42.656;23.292;2024-01-11T03:07:55;16.92;;;7.68;;
9675;SDS011;4876;42.656;23.292;2024-01-11T03:10:20;22.40;;;9.35;;
9675;SDS011;4876;42.656;23.292;2024-01-11T03:12:46;15.27;;;7.38;;
9675;SDS011;4876;42.656;23.292;2024-01-11T03:15:14;21.45;;;9.15;;
9675;SDS011;4876;42.656;23.292;2024-01-11T03:17:40;14.65;;;7.45;;
9675;SDS011;4876;42.656;23.292;2024-01-11T03:20:06;21.27;;;8.48;;
9675;SDS011;4876;42.656;23.292;2024-01-11T03:22:32;17.67;;;8.07;;
9675;SDS011;4876;42.656;23.292;2024-01-11T03:24:58;17.83;;;7.28;;
9675;SDS011;4876;42.656;23.292;2024-01-11T03:27:23;15.80;;;7.10;;
9675;SDS011;4876;42.656;23.292;2024-01-11T03:29:49;19.67;;;8.13;;
9675;SDS011;4876;42.656;23.292;2024-01-11T03:32:15;14.50;;;6.97;;
9675;SDS011;4876;42.656;23.292;2024-01-11T03:34:41;17.63;;;7.57;;
9675;SDS011;4876;42.656;23.292;2024-01-11T03:37:06;19.77;;;8.57;;
9675;SDS011;4876;42.656;23.292;2024-01-11T03:39:32;22.50;;;9.15;;
9675;SDS011;4876;42.656;23.292;2024-01-11T03:41:59;19.67;;;9.27;;
9675;SDS011;4876;42.656;23.292;2024-01-11T03:44:25;28.60;;;11.52;;
9675;SDS011;4876;42.656;23.292;2024-01-11T03:46:50;23.30;;;10.93;;
9675;SDS011;4876;42.656;23.292;2024-01-11T03:49:16;28.45;;;11.10;;
9675;SDS011;4876;42.656;23.292;2024-01-11T03:51:42;20.17;;;9.40;;
9675;SDS011;4876;42.656;23.292;2024-01-11T03:54:07;25.48;;;9.77;;
9675;SDS011;4876;42.656;23.292;2024-01-11T03:56:33;29.63;;;9.38;;
9675;SDS011;4876;42.656;23.292;2024-01-11T03:58:58;20.90;;;8.52;;
9675;SDS011;4876;42.656;23.292;2024-01-11T04:01:24;17.75;;;7.93;;
9675;SDS011;4876;42.656;23.292;2024-01-11T04:03:49;20.42;;;7.95;;
9675;SDS011;4876;42.656;23.292;2024-01-11T04:06:22;17.38;;;8.05;;
9675;SDS011;4876;42.656;23.292;2024-01-11T04:08:49;17.10;;;9.55;;
9675;SDS011;4876;42.656;23.292;2024-01-11T04:11:15;21.10;;;8.27;;
9675;SDS011;4876;42.656;23.292;2024-01-11T04:13:41;26.08;;;9.27;;
9675;SDS011;4876;42.656;23.292;2024-01-11T04:16:07;19.77;;;8.98;;
9675;SDS011;4876;42.656;23.292;2024-01-11T04:18:33;14.73;;;7.20;;
9675;SDS011;4876;42.656;23.292;2024-01-11T04:20:59;17.63;;;7.80;;
9675;SDS011;4876;42.656;23.292;2024-01-11T04:23:24;16.55;;;8.30;;
9675;SDS011;4876;42.656;23.292;2024-01-11T04:25:50;23.30;;;9.20;;
9675;SDS011;4876;42.656;23.292;2024-01-11T04:28:16;19.45;;;8.93;;
9675;SDS011;4876;42.656;23.292;2024-01-11T04:30:43;20.33;;;8.65;;
9675;SDS011;4876;42.656;23.292;2024-01-11T04:33:09;19.05;;;8.73;;
9675;SDS011;4876;42.656;23.292;2024-01-11T04:35:35;19.70;;;10.07;;
9675;SDS011;4876;42.656;23.292;2024-01-11T04:38:01;17.27;;;8.20;;
9675;SDS011;4876;42.656;23.292;2024-01-11T04:40:26;23.35;;;9.10;;
9675;SDS011;4876;42.656;23.292;2024-01-11T04:42:52;20.30;;;8.95;;
9675;SDS011;4876;42.656;23.292;2024-01-11T04:45:17;20.25;;;8.43;;
9675;SDS011;4876;42.656;23.292;2024-01-11T04:47:43;21.05;;;8.95;;
9675;SDS011;4876;42.656;23.292;2024-01-11T04:50:09;22.42;;;10.07;;
9675;SDS011;4876;42.656;23.292;2024-01-11T04:52:34;22.40;;;8.88;;
9675;SDS011;4876;42.656;23.292;2024-01-11T04:55:00;20.17;;;8.05;;
9675;SDS011;4876;42.656;23.292;2024-01-11T04:57:26;23.83;;;9.48;;
9675;SDS011;4876;42.656;23.292;2024-01-11T04:59:51;20.83;;;9.82;;
9675;SDS011;4876;42.656;23.292;2024-01-11T05:02:20;19.40;;;8.88;;
9675;SDS011;4876;42.656;23.292;2024-01-11T05:04:46;19.45;;;9.55;;
9675;SDS011;4876;42.656;23.292;2024-01-11T05:07:13;25.35;;;11.05;;
9675;SDS011;4876;42.656;23.292;2024-01-11T05:09:38;24.02;;;10.45;;
9675;SDS011;4876;42.656;23.292;2024-01-11T05:12:04;24.80;;;9.13;;
9675;SDS011;4876;42.656;23.292;2024-01-11T05:14:30;22.90;;;10.57;;
9675;SDS011;4876;42.656;23.292;2024-01-11T05:16:55;23.20;;;10.73;;
9675;SDS011;4876;42.656;23.292;2024-01-11T05:19:21;19.02;;;9.38;;
9675;SDS011;4876;42.656;23.292;2024-01-11T05:21:46;19.08;;;9.85;;
9675;SDS011;4876;42.656;23.292;2024-01-11T05:24:12;18.48;;;8.98;;
9675;SDS011;4876;42.656;23.292;2024-01-11T05:26:37;15.45;;;7.72;;
9675;SDS011;4876;42.656;23.292;2024-01-11T05:29:03;21.75;;;10.50;;
9675;SDS011;4876;42.656;23.292;2024-01-11T05:31:29;22.60;;;10.68;;
9675;SDS011;4876;42.656;23.292;2024-01-11T05:33:55;27.83;;;11.35;;
9675;SDS011;4876;42.656;23.292;2024-01-11T05:36:21;27.45;;;11.68;;
9675;SDS011;4876;42.656;23.292;2024-01-11T05:38:47;21.17;;;11.35;;
9675;SDS011;4876;42.656;23.292;2024-01-11T05:41:16;26.42;;;10.55;;
9675;SDS011;4876;42.656;23.292;2024-01-11T05:43:41;26.98;;;12.38;;
9675;SDS011;4876;42.656;23.292;2024-01-11T05:46:08;20.38;;;11.73;;
9675;SDS011;4876;42.656;23.292;2024-01-11T05:48:39;27.30;;;10.45;;
9675;SDS011;4876;42.656;23.292;2024-01-11T05:51:04;24.70;;;10.88;;
9675;SDS011;4876;42.656;23.292;2024-01-11T05:53:30;26.63;;;12.07;;
9675;SDS011;4876;42.656;23.292;2024-01-11T05:56:00;22.50;;;9.82;;
9675;SDS011;4876;42.656;23.292;2024-01-11T05:58:25;32.17;;;11.25;;
9675;SDS011;4876;42.656;23.292;2024-01-11T06:00:51;30.45;;;11.82;;
9675;SDS011;4876;42.656;23.292;2024-01-11T06:03:16;31.70;;;11.88;;
9675;SDS011;4876;42.656;23.292;2024-01-11T06:05:42;31.65;;;12.75;;
9675;SDS011;4876;42.656;23.292;2024-01-11T06:08:07;34.38;;;12.95;;
9675;SDS011;4876;42.656;23.292;2024-01-11T06:10:33;26.83;;;12.25;;
9675;SDS011;4876;42.656;23.292;2024-01-11T06:12:59;36.40;;;14.20;;
9675;SDS011;4876;42.656;23.292;2024-01-11T06:15:24;28.50;;;11.32;;
9675;SDS011;4876;42.656;23.292;2024-01-11T06:17:50;33.28;;;12.85;;
9675;SDS011;4876;42.656;23.292;2024-01-11T06:20:15;31.52;;;12.40;;
9675;SDS011;4876;42.656;23.292;2024-01-11T06:22:41;27.85;;;12.77;;
9675;SDS011;4876;42.656;23.292;2024-01-11T06:25:06;23.45;;;11.38;;
9675;SDS011;4876;42.656;23.292;2024-01-11T06:27:32;24.85;;;11.68;;
9675;SDS011;4876;42.656;23.292;2024-01-11T06:29:58;25.90;;;10.93;;
9675;SDS011;4876;42.656;23.292;2024-01-11T06:32:24;29.17;;;11.18;;
9675;SDS011;4876;42.656;23.292;2024-01-11T06:34:49;23.35;;;11.27;;
9675;SDS011;4876;42.656;23.292;2024-01-11T06:37:15;22.58;;;10.38;;
9675;SDS011;4876;42.656;23.292;2024-01-11T06:39:40;24.75;;;11.13;;
9675;SDS011;4876;42.656;23.292;2024-01-11T06:42:07;30.98;;;12.32;;
9675;SDS011;4876;42.656;23.292;2024-01-11T06:44:32;25.17;;;10.82;;
9675;SDS011;4876;42.656;23.292;2024-01-11T06:46:58;28.63;;;12.00;;
9675;SDS011;4876;42.656;23.292;2024-01-11T06:49:23;31.63;;;15.57;;
9675;SDS011;4876;42.656;23.292;2024-01-11T06:51:49;25.13;;;12.90;;
9675;SDS011;4876;42.656;23.292;2024-01-11T06:54:14;20.27;;;8.35;;
9675;SDS011;4876;42.656;23.292;2024-01-11T06:56:40;19.27;;;7.85;;
9675;SDS011;4876;42.656;23.292;2024-01-11T06:59:06;17.08;;;7.88;;
9675;SDS011;4876;42.656;23.292;2024-01-11T07:01:32;16.70;;;7.65;;
9675;SDS011;4876;42.656;23.292;2024-01-11T07:03:58;30.88;;;16.08;;
9675;SDS011;4876;42.656;23.292;2024-01-11T07:06:23;17.55;;;9.55;;
9675;SDS011;4876;42.656;23.292;2024-01-11T07:08:49;22.60;;;9.95;;
9675;SDS011;4876;42.656;23.292;2024-01-11T07:11:14;19.65;;;8.15;;
9675;SDS011;4876;42.656;23.292;2024-01-11T07:13:41;14.88;;;7.50;;
9675;SDS011;4876;42.656;23.292;2024-01-11T07:16:07;27.38;;;11.75;;
9675;SDS011;4876;42.656;23.292;2024-01-11T07:18:33;22.33;;;8.77;;
9675;SDS011;4876;42.656;23.292;2024-01-11T07:20:59;19.25;;;10.00;;
9675;SDS011;4876;42.656;23.292;2024-01-11T07:23:25;21.35;;;9.45;;
9675;SDS011;4876;42.656;23.292;2024-01-11T07:25:50;24.13;;;11.90;;
9675;SDS011;4876;42.656;23.292;2024-01-11T07:28:16;24.23;;;10.35;;
9675;SDS011;4876;42.656;23.292;2024-01-11T07:30:42;32.55;;;11.43;;
9675;SDS011;4876;42.656;23.292;2024-01-11T07:33:08;21.42;;;10.20;;
9675;SDS011;4876;42.656;23.292;2024-01-11T07:35:34;23.67;;;10.80;;
9675;SDS011;4876;42.656;23.292;2024-01-11T07:38:00;27.58;;;11.48;;
9675;SDS011;4876;42.656;23.292;2024-01-11T07:40:26;25.05;;;11.65;;
9675;SDS011;4876;42.656;23.292;2024-01-11T07:42:51;27.25;;;12.70;;
9675;SDS011;4876;42.656;23.292;2024-01-11T07:45:17;27.80;;;12.70;;
9675;SDS011;4876;42.656;23.292;2024-01-11T07:47:42;28.95;;;11.85;;
9675;SDS011;4876;42.656;23.292;2024-01-11T07:50:08;19.80;;;10.98;;
9675;SDS011;4876;42.656;23.292;2024-01-11T07:52:40;24.00;;;11.10;;
9675;SDS011;4876;42.656;23.292;2024-01-11T07:55:09;31.23;;;12.13;;
9675;SDS011;4876;42.656;23.292;2024-01-11T07:57:39;27.83;;;13.13;;
9675;SDS011;4876;42.656;23.292;2024-01-11T08:00:05;30.65;;;12.18;;
9675;SDS011;4876;42.656;23.292;2024-01-11T08:02:34;16.33;;;9.70;;
9675;SDS011;4876;42.656;23.292;2024-01-11T08:05:00;21.50;;;9.18;;
9675;SDS011;4876;42.656;23.292;2024-01-11T08:07:28;28.05;;;13.32;;
9675;SDS011;4876;42.656;23.292;2024-01-11T08:09:54;17.17;;;10.93;;
9675;SDS011;4876;42.656;23.292;2024-01-11T08:12:20;34.67;;;14.02;;
9675;SDS011;4876;42.656;23.292;2024-01-11T08:14:46;27.52;;;12.90;;
9675;SDS011;4876;42.656;23.292;2024-01-11T08:17:12;23.35;;;11.38;;
9675;SDS011;4876;42.656;23.292;2024-01-11T08:19:39;29.15;;;14.02;;
9675;SDS011;4876;42.656;23.292;2024-01-11T08:22:05;31.77;;;13.23;;
9675;SDS011;4876;42.656;23.292;2024-01-11T08:24:31;26.25;;;13.98;;
9675;SDS011;4876;42.656;23.292;2024-01-11T08:26:57;25.08;;;13.98;;
9675;SDS011;4876;42.656;23.292;2024-01-11T08:29:22;29.48;;;12.93;;
9675;SDS011;4876;42.656;23.292;2024-01-11T08:31:48;23.98;;;13.38;;
9675;SDS011;4876;42.656;23.292;2024-01-11T08:34:14;27.33;;;12.73;;
9675;SDS011;4876;42.656;23.292;2024-01-11T08:36:39;36.65;;;13.73;;
9675;SDS011;4876;42.656;23.292;2024-01-11T08:39:05;32.72;;;15.70;;
9675;SDS011;4876;42.656;23.292;2024-01-11T08:41:32;35.88;;;16.00;;
9675;SDS011;4876;42.656;23.292;2024-01-11T08:43:58;26.08;;;14.02;;
9675;SDS011;4876;42.656;23.292;2024-01-11T08:46:24;28.23;;;12.95;;
9675;SDS011;4876;42.656;23.292;2024-01-11T08:48:51;32.25;;;14.55;;
9675;SDS011;4876;42.656;23.292;2024-01-11T08:51:17;26.80;;;12.50;;
9675;SDS011;4876;42.656;23.292;2024-01-11T08:53:43;25.83;;;11.93;;
9675;SDS011;4876;42.656;23.292;2024-01-11T08:56:09;31.23;;;14.52;;
9675;SDS011;4876;42.656;23.292;2024-01-11T08:58:34;31.65;;;14.55;;
9675;SDS011;4876;42.656;23.292;2024-01-11T09:01:01;28.77;;;14.20;;
9675;SDS011;4876;42.656;23.292;2024-01-11T09:03:27;36.63;;;14.02;;
9675;SDS011;4876;42.656;23.292;2024-01-11T09:05:53;36.80;;;15.98;;
9675;SDS011;4876;42.656;23.292;2024-01-11T09:08:22;24.58;;;13.40;;
9675;SDS011;4876;42.656;23.292;2024-01-11T09:10:48;25.17;;;11.90;;
9675;SDS011;4876;42.656;23.292;2024-01-11T09:13:13;32.17;;;14.15;;
9675;SDS011;4876;42.656;23.292;2024-01-11T09:15:40;34.03;;;15.13;;
9675;SDS011;4876;42.656;23.292;2024-01-11T09:18:06;33.50;;;14.82;;
9675;SDS011;4876;42.656;23.292;2024-01-11T09:20:32;30.92;;;15.43;;
9675;SDS011;4876;42.656;23.292;2024-01-11T09:22:58;34.45;;;13.32;;
9675;SDS011;4876;42.656;23.292;2024-01-11T09:25:24;30.70;;;15.02;;
9675;SDS011;4876;42.656;23.292;2024-01-11T09:27:49;32.38;;;15.32;;
9675;SDS011;4876;42.656;23.292;2024-01-11T09:30:15;37.35;;;16.23;;
9675;SDS011;4876;42.656;23.292;2024-01-11T09:32:40;37.88;;;15.50;;
9675;SDS011;4876;42.656;23.292;2024-01-11T09:35:06;37.83;;;16.10;;
9675;SDS011;4876;42.656;23.292;2024-01-11T09:37:32;30.73;;;15.20;;
9675;SDS011;4876;42.656;23.292;2024-01-11T09:39:58;35.42;;;17.10;;
9675;SDS011;4876;42.656;23.292;2024-01-11T09:42:25;32.20;;;15.25;;
9675;SDS011;4876;42.656;23.292;2024-01-11T09:44:52;32.15;;;14.40;;
9675;SDS011;4876;42.656;23.292;2024-01-11T09:47:19;34.60;;;16.27;;
9675;SDS011;4876;42.656;23.292;2024-01-11T09:49:47;35.38;;;15.50;;
9675;SDS011;4876;42.656;23.292;2024-01-11T09:54:42;32.08;;;13.80;;
9675;SDS011;4876;42.656;23.292;2024-01-11T09:57:07;34.30;;;16.02;;
9675;SDS011;4876;42.656;23.292;2024-01-11T09:59:34;28.73;;;14.20;;
9675;SDS011;4876;42.656;23.292;2024-01-11T10:02:01;34.20;;;16.67;;
9675;SDS011;4876;42.656;23.292;2024-01-11T10:04:28;31.17;;;15.13;;
9675;SDS011;4876;42.656;23.292;2024-01-11T10:06:54;32.15;;;15.07;;
9675;SDS011;4876;42.656;23.292;2024-01-11T10:09:20;40.42;;;16.58;;
9675;SDS011;4876;42.656;23.292;2024-01-11T10:11:46;38.22;;;15.77;;
9675;SDS011;4876;42.656;23.292;2024-01-11T10:14:12;38.90;;;17.08;;
9675;SDS011;4876;42.656;23.292;2024-01-11T10:16:38;29.77;;;16.48;;
9675;SDS011;4876;42.656;23.292;2024-01-11T10:19:03;32.55;;;16.27;;
9675;SDS011;4876;42.656;23.292;2024-01-11T10:21:29;32.08;;;15.57;;
9675;SDS011;4876;42.656;23.292;2024-01-11T10:23:55;31.52;;;15.43;;
9675;SDS011;4876;42.656;23.292;2024-01-11T10:26:22;30.30;;;15.80;;
9675;SDS011;4876;42.656;23.292;2024-01-11T10:28:48;36.30;;;15.63;;
9675;SDS011;4876;42.656;23.292;2024-01-11T10:31:14;35.85;;;16.15;;
9675;SDS011;4876;42.656;23.292;2024-01-11T10:33:43;34.40;;;16.83;;
9675;SDS011;4876;42.656;23.292;2024-01-11T10:36:11;30.77;;;16.10;;
9675;SDS011;4876;42.656;23.292;2024-01-11T10:38:37;33.40;;;16.45;;
9675;SDS011;4876;42.656;23.292;2024-01-11T10:41:05;30.92;;;17.83;;
9675;SDS011;4876;42.656;23.292;2024-01-11T10:43:31;41.17;;;17.58;;
9675;SDS011;4876;42.656;23.292;2024-01-11T10:46:00;37.75;;;17.10;;
9675;SDS011;4876;42.656;23.292;2024-01-11T10:48:30;39.03;;;17.80;;
9675;SDS011;4876;42.656;23.292;2024-01-11T10:51:00;41.85;;;17.67;;
9675;SDS011;4876;42.656;23.292;2024-01-11T10:56:12;42.58;;;20.13;;
9675;SDS011;4876;42.656;23.292;2024-01-11T10:58:42;39.95;;;18.95;;
9675;SDS011;4876;42.656;23.292;2024-01-11T11:01:11;37.15;;;18.85;;
9675;SDS011;4876;42.656;23.292;2024-01-11T11:03:38;36.25;;;18.38;;
9675;SDS011;4876;42.656;23.292;2024-01-11T11:06:07;41.17;;;19.23;;
9675;SDS011;4876;42.656;23.292;2024-01-11T11:08:35;47.63;;;22.20;;
9675;SDS011;4876;42.656;23.292;2024-01-11T11:11:02;38.80;;;18.45;;
9675;SDS011;4876;42.656;23.292;2024-01-11T11:13:31;37.75;;;18.08;;
9675;SDS011;4876;42.656;23.292;2024-01-11T11:15:57;42.65;;;18.73;;
9675;SDS011;4876;42.656;23.292;2024-01-11T11:18:22;47.65;;;22.23;;
9675;SDS011;4876;42.656;23.292;2024-01-11T11:20:49;42.85;;;20.27;;
9675;SDS011;4876;42.656;23.292;2024-01-11T11:23:16;35.85;;;18.48;;
9675;SDS011;4876;42.656;23.292;2024-01-11T11:25:44;36.40;;;17.80;;
9675;SDS011;4876;42.656;23.292;2024-01-11T11:28:12;36.42;;;18.65;;
9675;SDS011;4876;42.656;23.292;2024-01-11T11:30:39;36.10;;;19.63;;
9675;SDS011;4876;42.656;23.292;2024-01-11T11:33:09;40.17;;;19.58;;
9675;SDS011;4876;42.656;23.292;2024-01-11T11:35:36;34.97;;;17.35;;
9675;SDS011;4876;42.656;23.292;2024-01-11T11:38:02;34.97;;;17.67;;
9675;SDS011;4876;42.656;23.292;2024-01-11T11:40:31;34.10;;;17.13;;
9675;SDS011;4876;42.656;23.292;2024-01-11T11:43:09;36.10;;;16.83;;
9675;SDS011;4876;42.656;23.292;2024-01-11T11:45:35;28.25;;;13.50;;
9675;SDS011;4876;42.656;23.292;2024-01-11T11:48:14;28.38;;;13.05;;
9675;SDS011;4876;42.656;23.292;2024-01-11T11:51:20;33.58;;;13.90;;
9675;SDS011;4876;42.656;23.292;2024-01-11T11:53:50;28.02;;;12.35;;
9675;SDS011;4876;42.656;23.292;2024-01-11T11:56:22;31.70;;;12.98;;
9675;SDS011;4876;42.656;23.292;2024-01-11T11:58:49;24.77;;;11.40;;
9675;SDS011;4876;42.656;23.292;2024-01-11T12:01:15;27.58;;;13.07;;
9675;SDS011;4876;42.656;23.292;2024-01-11T12:03:42;23.70;;;11.32;;
9675;SDS011;4876;42.656;23.292;2024-01-11T12:06:14;22.30;;;10.43;;
9675;SDS011;4876;42.656;23.292;2024-01-11T12:08:42;24.50;;;10.82;;
9675;SDS011;4876;42.656;23.292;2024-01-11T12:11:08;20.10;;;9.35;;
9675;SDS011;4876;42.656;23.292;2024-01-11T12:13:35;18.48;;;8.52;;
9675;SDS011;4876;42.656;23.292;2024-01-11T12:16:01;16.88;;;7.75;;
9675;SDS011;4876;42.656;23.292;2024-01-11T12:18:26;16.63;;;8.05;;
9675;SDS011;4876;42.656;23.292;2024-01-11T12:20:52;18.92;;;9.13;;
9675;SDS011;4876;42.656;23.292;2024-01-11T12:23:20;17.40;;;8.70;;
9675;SDS011;4876;42.656;23.292;2024-01-11T12:25:46;17.77;;;8.90;;
9675;SDS011;4876;42.656;23.292;2024-01-11T12:28:12;21.27;;;8.70;;
9675;SDS011;4876;42.656;23.292;2024-01-11T12:30:38;21.88;;;8.30;;
9675;SDS011;4876;42.656;23.292;2024-01-11T12:33:04;18.33;;;8.77;;
9675;SDS011;4876;42.656;23.292;2024-01-11T12:35:30;18.13;;;8.20;;
9675;SDS011;4876;42.656;23.292;2024-01-11T12:37:59;15.38;;;7.53;;
9675;SDS011;4876;42.656;23.292;2024-01-11T12:40:27;15.65;;;7.13;;
9675;SDS011;4876;42.656;23.292;2024-01-11T12:42:53;16.13;;;7.20;;
9675;SDS011;4876;42.656;23.292;2024-01-11T12:45:19;17.98;;;7.93;;
9675;SDS011;4876;42.656;23.292;2024-01-11T12:47:45;15.00;;;7.25;;
9675;SDS011;4876;42.656;23.292;2024-01-11T12:50:11;13.18;;;6.63;;
9675;SDS011;4876;42.656;23.292;2024-01-11T12:52:38;7.45;;;2.97;;
9675;SDS011;4876;42.656;23.292;2024-01-11T12:55:04;7.20;;;3.22;;
9675;SDS011;4876;42.656;23.292;2024-01-11T12:57:35;5.22;;;3.03;;
9675;SDS011;4876;42.656;23.292;2024-01-11T13:00:13;8.45;;;3.00;;
9675;SDS011;4876;42.656;23.292;2024-01-11T13:02:39;6.85;;;2.65;;
9675;SDS011;4876;42.656;23.292;2024-01-11T13:05:05;4.85;;;2.83;;
9675;SDS011;4876;42.656;23.292;2024-01-11T13:07:32;4.18;;;1.98;;
9675;SDS011;4876;42.656;23.292;2024-01-11T13:09:58;6.25;;;2.67;;
9675;SDS011;4876;42.656;23.292;2024-01-11T13:12:24;2.70;;;1.83;;
9675;SDS011;4876;42.656;23.292;2024-01-11T13:14:50;8.60;;;2.83;;
9675;SDS011;4876;42.656;23.292;2024-01-11T13:17:18;7.22;;;2.20;;
9675;SDS011;4876;42.656;23.292;2024-01-11T13:19:43;6.82;;;2.67;;
9675;SDS011;4876;42.656;23.292;2024-01-11T13:22:10;4.82;;;2.35;;
9675;SDS011;4876;42.656;23.292;2024-01-11T13:24:35;6.38;;;3.10;;
9675;SDS011;4876;42.656;23.292;2024-01-11T13:27:01;5.20;;;2.53;;
9675;SDS011;4876;42.656;23.292;2024-01-11T13:29:27;8.57;;;3.03;;
9675;SDS011;4876;42.656;23.292;2024-01-11T13:31:52;5.40;;;3.08;;
9675;SDS011;4876;42.656;23.292;2024-01-11T13:34:18;7.10;;;2.78;;
9675;SDS011;4876;42.656;23.292;2024-01-11T13:36:44;5.03;;;2.72;;
9675;SDS011;4876;42.656;23.292;2024-01-11T13:39:10;5.18;;;3.08;;
9675;SDS011;4876;42.656;23.292;2024-01-11T13:41:35;4.63;;;2.50;;
9675;SDS011;4876;42.656;23.292;2024-01-11T13:44:01;6.38;;;2.60;;
9675;SDS011;4876;42.656;23.292;2024-01-11T13:46:27;7.57;;;2.55;;
9675;SDS011;4876;42.656;23.292;2024-01-11T13:48:52;6.53;;;2.90;;
9675;SDS011;4876;42.656;23.292;2024-01-11T13:51:18;6.85;;;3.10;;
9675;SDS011;4876;42.656;23.292;2024-01-11T13:53:46;5.95;;;2.90;;
9675;SDS011;4876;42.656;23.292;2024-01-11T13:56:12;6.43;;;2.70;;
9675;SDS011;4876;42.656;23.292;2024-01-11T13:58:37;6.55;;;2.30;;
9675;SDS011;4876;42.656;23.292;2024-01-11T14:01:04;4.25;;;2.13;;
9675;SDS011;4876;42.656;23.292;2024-01-11T14:03:30;6.88;;;2.75;;
9675;SDS011;4876;42.656;23.292;2024-01-11T14:05:55;3.83;;;2.08;;
9675;SDS011;4876;42.656;23.292;2024-01-11T14:08:21;4.88;;;2.50;;
9675;SDS011;4876;42.656;23.292;2024-01-11T14:10:47;5.28;;;2.95;;
9675;SDS011;4876;42.656;23.292;2024-01-11T14:13:13;7.80;;;3.63;;
9675;SDS011;4876;42.656;23.292;2024-01-11T14:15:38;5.97;;;3.15;;
9675;SDS011;4876;42.656;23.292;2024-01-11T14:18:05;6.55;;;3.30;;
9675;SDS011;4876;42.656;23.292;2024-01-11T14:20:33;5.45;;;2.92;;
9675;SDS011;4876;42.656;23.292;2024-01-11T14:23:02;7.60;;;3.63;;
9675;SDS011;4876;42.656;23.292;2024-01-11T14:27:54;4.72;;;2.55;;
9675;SDS011;4876;42.656;23.292;2024-01-11T14:30:21;8.85;;;3.45;;
9675;SDS011;4876;42.656;23.292;2024-01-11T14:32:47;7.72;;;3.47;;
9675;SDS011;4876;42.656;23.292;2024-01-11T14:35:13;6.50;;;3.05;;
9675;SDS011;4876;42.656;23.292;2024-01-11T14:37:39;9.07;;;3.50;;
9675;SDS011;4876;42.656;23.292;2024-01-11T14:40:05;5.82;;;3.20;;
9675;SDS011;4876;42.656;23.292;2024-01-11T14:42:32;6.82;;;3.30;;
9675;SDS011;4876;42.656;23.292;2024-01-11T14:44:58;6.68;;;2.88;;